createdAt,value
2018-05-14T00:01:19.060Z,8.00
2018-05-14T00:02:50.871Z,6.20
2018-05-14T00:04:22.933Z,6.20
2018-05-14T00:05:54.494Z,7.70
2018-05-14T00:07:26.306Z,5.20
2018-05-14T00:08:58.118Z,5.80
2018-05-14T00:10:30.079Z,8.40
2018-05-14T00:12:01.741Z,8.50
2018-05-14T00:13:33.553Z,8.40
2018-05-14T00:15:05.365Z,9.90
2018-05-14T00:16:37.276Z,9.60
2018-05-14T00:18:08.988Z,11.60
2018-05-14T00:19:40.798Z,14.80
2018-05-14T00:21:12.610Z,11.80
2018-05-14T00:22:44.421Z,15.00
2018-05-14T00:24:16.233Z,13.30
2018-05-14T00:25:48.044Z,12.40
2018-05-14T00:27:19.855Z,10.30
2018-05-14T00:28:51.668Z,15.20
2018-05-14T00:30:23.478Z,13.70
2018-05-14T00:31:55.289Z,12.70
2018-05-14T00:33:27.101Z,16.40
2018-05-14T00:34:59.413Z,18.90
2018-05-14T00:36:30.723Z,18.60
2018-05-14T00:38:02.537Z,20.70
2018-05-14T00:39:34.347Z,19.30
2018-05-14T00:41:06.159Z,18.00
2018-05-14T00:42:37.970Z,18.90
2018-05-14T00:44:09.782Z,24.40
2018-05-14T00:45:41.593Z,19.30
2018-05-14T00:47:13.405Z,20.00
2018-05-14T00:48:45.251Z,17.60
2018-05-14T00:50:17.028Z,19.90
2018-05-14T00:51:48.840Z,20.10
2018-05-14T00:53:20.752Z,19.80
2018-05-14T00:54:52.464Z,18.50
2018-05-14T00:56:24.275Z,16.00
2018-05-14T00:57:56.087Z,18.60
2018-05-14T00:59:27.898Z,13.00
2018-05-14T01:00:59.714Z,16.70
2018-05-14T01:02:31.522Z,17.60
2018-05-14T01:04:03.334Z,14.00
2018-05-14T01:05:35.147Z,12.10
2018-05-14T01:07:06.957Z,17.90
2018-05-14T01:08:38.813Z,13.20
2018-05-14T01:10:10.591Z,14.90
2018-05-14T01:11:42.493Z,12.50
2018-05-14T01:13:14.204Z,14.00
2018-05-14T01:14:46.016Z,11.10
2018-05-14T01:16:52.540Z,11.30
2018-05-14T01:17:49.638Z,13.30
2018-05-14T01:19:21.452Z,15.30
2018-05-14T01:20:53.261Z,13.30
2018-05-14T01:22:25.072Z,18.10
2018-05-14T01:23:56.884Z,16.50
2018-05-14T01:25:28.694Z,17.60
2018-05-14T01:27:00.506Z,20.20
2018-05-14T01:28:32.618Z,17.60
2018-05-14T01:30:04.132Z,20.00
2018-05-14T01:31:35.941Z,19.20
2018-05-14T01:33:07.756Z,24.70
2018-05-14T01:34:39.664Z,25.40
2018-05-14T01:36:11.375Z,25.50
2018-05-14T01:37:43.186Z,22.20
2018-05-14T01:39:14.998Z,24.60
2018-05-14T01:41:00.977Z,22.40
2018-05-14T01:42:18.626Z,24.30
2018-05-14T01:43:50.431Z,23.60
2018-05-14T01:45:22.243Z,24.70
2018-05-14T01:46:54.154Z,25.80
2018-05-14T01:48:26.472Z,24.60
2018-05-14T01:49:57.679Z,27.40
2018-05-14T01:51:55.773Z,28.30
2018-05-14T01:53:01.302Z,30.30
2018-05-14T01:54:33.105Z,31.10
2018-05-14T01:56:04.916Z,29.30
2018-05-14T01:57:36.730Z,28.00
2018-05-14T01:59:08.641Z,28.50
2018-05-14T02:00:40.354Z,30.60
2018-05-14T02:02:13.238Z,30.00
2018-05-14T02:03:43.995Z,28.10
2018-05-14T02:05:15.889Z,28.30
2018-05-14T02:06:47.675Z,29.10
2018-05-14T02:08:19.411Z,25.70
2018-05-14T02:09:51.223Z,26.30
2018-05-14T02:11:23.185Z,27.90
2018-05-14T02:12:54.847Z,21.70
2018-05-14T02:14:26.657Z,26.00
2018-05-14T02:15:58.467Z,22.70
2018-05-14T02:17:30.278Z,21.90
2018-05-14T02:19:02.090Z,17.40
2018-05-14T02:20:33.900Z,16.20
2018-05-14T02:22:05.715Z,19.30
2018-05-14T02:23:37.622Z,15.30
2018-05-14T02:25:09.334Z,16.60
2018-05-14T02:26:41.145Z,16.90
2018-05-14T02:28:12.956Z,16.10
2018-05-14T02:29:44.867Z,15.60
2018-05-14T02:31:16.580Z,15.00
2018-05-14T02:32:48.392Z,13.60
2018-05-14T02:34:20.201Z,14.70
2018-05-14T02:35:52.013Z,13.70
2018-05-14T02:37:23.823Z,16.00
2018-05-14T02:38:55.633Z,15.60
2018-05-14T02:40:27.445Z,16.90
2018-05-14T02:41:59.357Z,14.90
2018-05-14T02:43:31.068Z,15.80
2018-05-14T02:45:02.877Z,16.30
2018-05-14T02:46:34.689Z,15.50
2018-05-14T02:48:06.501Z,15.50
2018-05-14T02:49:38.371Z,15.30
2018-05-14T02:51:10.929Z,19.70
2018-05-14T02:52:41.941Z,17.10
2018-05-14T02:54:13.746Z,16.90
2018-05-14T02:55:45.567Z,15.90
2018-05-14T02:57:17.367Z,17.80
2018-05-14T02:58:49.191Z,15.40
2018-05-14T03:00:21.193Z,17.20
2018-05-14T03:01:52.800Z,15.00
2018-05-14T03:03:24.611Z,15.80
2018-05-14T03:04:56.658Z,15.50
2018-05-14T03:06:28.235Z,15.10
2018-05-14T03:08:00.047Z,15.60
2018-05-14T03:09:31.856Z,15.40
2018-05-14T03:11:03.668Z,16.20
2018-05-14T03:12:35.479Z,17.80
2018-05-14T03:14:07.291Z,16.80
2018-05-14T03:15:39.106Z,18.00
2018-05-14T03:17:10.915Z,16.50
2018-05-14T03:18:42.824Z,19.40
2018-05-14T03:20:14.534Z,19.30
2018-05-14T03:23:25.030Z,14.10
2018-05-14T03:26:22.389Z,17.80
2018-05-14T03:27:53.591Z,19.20
2018-05-14T03:29:26.295Z,19.60
2018-05-14T03:32:29.631Z,19.60
2018-05-14T03:34:00.836Z,20.60
2018-05-14T03:35:32.647Z,20.60
2018-05-14T03:37:05.639Z,19.60
2018-05-14T03:38:36.270Z,20.30
2018-05-14T03:40:08.080Z,10.50
2018-05-14T03:41:39.891Z,7.80
2018-05-14T03:43:11.707Z,9.10
2018-05-14T03:44:43.514Z,6.20
2018-05-14T03:46:15.324Z,6.40
2018-05-14T03:47:47.135Z,7.20
2018-05-14T03:49:18.945Z,7.70
2018-05-14T03:50:50.757Z,6.30
2018-05-14T03:52:22.568Z,6.60
2018-05-14T03:53:54.378Z,5.70
2018-05-14T03:55:26.290Z,8.10
2018-05-14T03:56:58.000Z,9.90
2018-05-14T03:58:29.810Z,5.80
2018-05-14T04:00:01.620Z,5.80
2018-05-14T04:01:33.531Z,5.60
2018-05-14T04:03:05.246Z,6.10
2018-05-14T04:04:37.052Z,6.00
2018-05-14T04:06:08.863Z,8.20
2018-05-14T04:07:40.673Z,5.20
2018-05-14T04:11:09.969Z,5.10
2018-05-14T04:12:16.106Z,5.90
2018-05-14T04:13:48.168Z,6.70
2018-05-14T04:15:19.728Z,4.80
2018-05-14T04:16:51.542Z,5.60
2018-05-14T04:18:23.351Z,4.90
2018-05-14T04:19:55.161Z,5.50
2018-05-14T04:21:26.972Z,5.40
2018-05-14T04:22:58.783Z,6.20
2018-05-14T04:24:30.607Z,6.60
2018-05-14T04:26:02.411Z,7.10
2018-05-14T04:27:34.216Z,10.30
2018-05-14T04:29:06.027Z,9.20
2018-05-14T04:30:37.839Z,9.40
2018-05-14T04:32:09.850Z,8.70
2018-05-14T04:33:41.470Z,12.30
2018-05-14T04:35:13.271Z,16.90
2018-05-14T04:36:45.082Z,14.20
2018-05-14T04:38:16.899Z,12.50
2018-05-14T04:39:48.705Z,18.70
2018-05-14T04:41:20.516Z,14.40
2018-05-14T04:42:52.332Z,17.50
2018-05-14T04:44:24.239Z,15.60
2018-05-14T04:45:56.421Z,17.50
2018-05-14T04:47:27.974Z,16.80
2018-05-14T04:48:59.572Z,16.40
2018-05-14T04:50:31.484Z,14.60
2018-05-14T04:52:03.195Z,16.60
2018-05-14T04:53:35.006Z,18.50
2018-05-14T04:55:06.818Z,17.60
2018-05-14T04:56:38.627Z,18.00
2018-05-14T04:58:10.439Z,16.20
2018-05-14T04:59:42.250Z,17.20
2018-05-14T05:01:14.061Z,18.50
2018-05-14T05:02:45.972Z,16.80
2018-05-14T05:05:50.100Z,18.00
2018-05-14T05:07:21.304Z,20.70
2018-05-14T05:08:53.216Z,18.90
2018-05-14T05:10:24.964Z,19.90
2018-05-14T05:11:56.737Z,22.60
2018-05-14T05:13:28.548Z,25.10
2018-05-14T05:15:00.610Z,21.00
2018-05-14T05:16:32.170Z,23.50
2018-05-14T05:18:03.980Z,28.70
2018-05-14T05:19:35.791Z,26.50
2018-05-14T05:21:07.752Z,26.10
2018-05-14T05:22:39.416Z,25.60
2018-05-14T05:24:11.223Z,23.00
2018-05-14T05:25:43.034Z,29.60
2018-05-14T05:27:14.947Z,25.90
2018-05-14T05:28:53.863Z,31.20
2018-05-14T05:30:19.004Z,29.30
2018-05-14T05:31:50.277Z,30.30
2018-05-14T05:33:22.186Z,32.00
2018-05-14T05:34:53.897Z,31.60
2018-05-14T05:36:25.707Z,28.10
2018-05-14T05:37:57.604Z,33.50
2018-05-14T05:41:01.745Z,29.10
2018-05-14T05:42:32.948Z,28.80
2018-05-14T05:44:04.758Z,29.10
2018-05-14T05:45:36.669Z,30.80
2018-05-14T05:47:08.385Z,30.50
2018-05-14T05:48:40.193Z,27.10
2018-05-14T05:50:11.998Z,25.20
2018-05-14T05:51:43.808Z,22.00
2018-05-14T05:53:15.619Z,23.60
2018-05-14T05:54:47.430Z,23.70
2018-05-14T05:56:19.243Z,21.70
2018-05-14T05:57:51.049Z,20.00
2018-05-14T05:59:22.859Z,20.20
2018-05-14T06:00:54.671Z,22.00
2018-05-14T06:02:26.478Z,24.80
2018-05-14T06:03:58.589Z,21.30
2018-05-14T06:05:30.099Z,21.00
2018-05-14T06:07:02.784Z,20.30
2018-05-14T06:08:33.718Z,21.70
2018-05-14T06:10:05.528Z,23.50
2018-05-14T06:11:37.338Z,28.50
2018-05-14T06:13:09.149Z,21.60
2018-05-14T06:14:40.957Z,25.00
2018-05-14T06:16:13.018Z,24.90
2018-05-14T06:17:44.577Z,23.00
2018-05-14T06:19:16.387Z,26.50
2018-05-14T06:20:48.197Z,24.10
2018-05-14T06:22:20.157Z,31.20
2018-05-14T06:23:51.818Z,24.00
2018-05-14T06:25:23.628Z,30.80
2018-05-14T06:26:55.437Z,23.60
2018-05-14T06:28:27.246Z,25.10
2018-05-14T06:29:59.056Z,29.90
2018-05-14T06:31:30.867Z,27.20
2018-05-14T06:33:02.679Z,32.80
2018-05-14T06:34:34.587Z,30.50
2018-05-14T06:36:06.299Z,36.60
2018-05-14T06:37:38.108Z,31.20
2018-05-14T06:39:10.445Z,29.90
2018-05-14T06:40:42.027Z,24.80
2018-05-14T06:42:13.537Z,21.10
2018-05-14T06:43:45.348Z,19.70
2018-05-14T06:45:17.155Z,18.40
2018-05-14T06:46:49.215Z,16.50
2018-05-14T06:48:20.775Z,18.30
2018-05-14T06:49:52.603Z,13.20
2018-05-14T06:51:24.395Z,19.20
2018-05-14T06:52:56.205Z,17.50
2018-05-14T06:54:28.016Z,16.50
2018-05-14T06:55:59.826Z,19.00
2018-05-14T06:57:31.635Z,19.20
2018-05-14T06:59:03.548Z,17.10
2018-05-14T07:00:35.256Z,15.60
2018-05-14T07:02:07.071Z,19.30
2018-05-14T07:03:38.877Z,20.80
2018-05-14T07:05:10.788Z,17.30
2018-05-14T07:06:42.498Z,18.20
2018-05-14T07:08:14.850Z,18.70
2018-05-14T07:09:46.120Z,19.90
2018-05-14T07:11:17.931Z,18.40
2018-05-14T07:12:49.741Z,21.20
2018-05-14T07:14:21.551Z,18.60
2018-05-14T07:15:53.361Z,19.70
2018-05-14T07:17:25.272Z,19.50
2018-05-14T07:18:56.983Z,15.30
2018-05-14T07:20:28.793Z,17.40
2018-05-14T07:22:00.604Z,20.50
2018-05-14T07:23:32.416Z,19.50
2018-05-14T07:25:04.233Z,17.40
2018-05-14T07:26:36.037Z,19.10
2018-05-14T07:28:07.847Z,16.50
2018-05-14T07:29:39.660Z,20.40
2018-05-14T07:31:11.468Z,16.80
2018-05-14T07:32:43.279Z,17.20
2018-05-14T07:34:15.093Z,16.30
2018-05-14T07:35:47.102Z,16.40
2018-05-14T07:37:18.717Z,16.50
2018-05-14T07:38:50.525Z,18.40
2018-05-14T07:40:22.362Z,15.40
2018-05-14T07:41:54.142Z,16.00
2018-05-14T07:43:25.953Z,13.10
2018-05-14T07:44:57.763Z,13.80
2018-05-14T07:46:29.574Z,14.90
2018-05-14T07:48:01.638Z,14.40
2018-05-14T07:49:33.194Z,13.70
2018-05-14T07:51:05.005Z,14.40
2018-05-14T07:52:40.455Z,14.50
2018-05-14T07:55:41.044Z,14.80
2018-05-14T07:57:12.247Z,18.90
2018-05-14T07:58:44.056Z,13.80
2018-05-14T08:00:15.920Z,12.70
2018-05-14T08:01:47.678Z,14.10
2018-05-14T08:03:19.487Z,11.20
2018-05-14T08:04:51.298Z,12.90
2018-05-14T08:06:23.209Z,15.00
2018-05-14T08:09:27.338Z,13.20
2018-05-14T08:10:58.539Z,10.90
2018-05-14T08:12:30.650Z,11.60
2018-05-14T08:14:02.161Z,9.80
2018-05-14T08:15:40.852Z,9.30
2018-05-14T08:17:05.782Z,10.10
2018-05-14T08:18:37.844Z,10.40
2018-05-14T08:20:09.402Z,9.80
2018-05-14T08:21:41.211Z,9.50
2018-05-14T08:23:13.023Z,10.40
2018-05-14T08:24:44.837Z,8.50
2018-05-14T08:26:16.643Z,10.90
2018-05-14T08:27:48.455Z,8.40
2018-05-14T08:29:20.272Z,7.00
2018-05-14T08:30:52.174Z,7.60
2018-05-14T08:32:23.885Z,9.10
2018-05-14T08:33:55.696Z,6.50
2018-05-14T08:35:27.510Z,5.30
2018-05-14T08:36:59.416Z,8.60
2018-05-14T08:38:31.127Z,6.50
2018-05-14T08:40:02.939Z,7.60
2018-05-14T08:41:34.747Z,9.60
2018-05-14T08:43:06.708Z,7.10
2018-05-14T08:44:38.368Z,8.30
2018-05-14T08:46:10.179Z,8.70
2018-05-14T08:47:41.991Z,9.00
2018-05-14T08:49:13.902Z,7.80
2018-05-14T08:50:45.610Z,10.80
2018-05-14T08:52:18.904Z,11.30
2018-05-14T08:53:49.228Z,7.90
2018-05-14T08:55:21.043Z,10.10
2018-05-14T08:56:52.849Z,10.10
2018-05-14T08:58:24.660Z,8.60
2018-05-14T08:59:56.470Z,8.50
2018-05-14T09:01:28.281Z,10.70
2018-05-14T09:03:00.094Z,11.60
2018-05-14T09:04:45.529Z,12.00
2018-05-14T09:06:03.713Z,7.60
2018-05-14T09:09:09.908Z,12.00
2018-05-14T09:10:39.145Z,10.10
2018-05-14T09:12:10.958Z,8.70
2018-05-14T09:13:42.766Z,9.30
2018-05-14T09:15:14.577Z,13.80
2018-05-14T09:16:47.971Z,10.00
2018-05-14T09:18:18.197Z,10.90
2018-05-14T09:19:50.008Z,11.90
2018-05-14T09:21:21.918Z,10.50
2018-05-14T09:22:55.928Z,14.30
2018-05-14T09:24:25.440Z,15.00
2018-05-14T09:25:58.292Z,11.60
2018-05-14T09:29:03.903Z,12.70
2018-05-14T09:30:32.891Z,10.70
2018-05-14T09:32:04.491Z,8.80
2018-05-14T09:33:36.301Z,10.30
2018-05-14T09:35:08.111Z,13.00
2018-05-14T09:36:39.927Z,8.80
2018-05-14T09:38:11.735Z,14.40
2018-05-14T09:39:43.645Z,9.60
2018-05-14T09:41:15.354Z,12.60
2018-05-14T09:42:47.163Z,11.80
2018-05-14T09:44:18.976Z,13.10
2018-05-14T09:45:50.937Z,12.20
2018-05-14T09:47:22.594Z,10.00
2018-05-14T09:48:54.403Z,10.60
2018-05-14T09:50:26.308Z,10.70
2018-05-14T09:51:58.124Z,7.90
2018-05-14T09:53:29.835Z,9.20
2018-05-14T09:55:01.645Z,9.20
2018-05-14T09:56:33.456Z,10.30
2018-05-14T09:58:05.268Z,9.70
2018-05-14T09:59:37.078Z,10.30
2018-05-14T10:01:08.892Z,8.90
2018-05-14T10:02:40.701Z,10.30
2018-05-14T10:04:12.611Z,11.20
2018-05-14T10:05:44.322Z,13.80
2018-05-14T10:07:16.134Z,12.50
2018-05-14T10:08:47.946Z,10.80
2018-05-14T10:10:19.858Z,12.20
2018-05-14T10:11:51.573Z,12.30
2018-05-14T10:13:23.383Z,14.70
2018-05-14T10:14:55.195Z,9.30
2018-05-14T10:16:27.005Z,11.40
2018-05-14T10:17:58.818Z,9.80
2018-05-14T10:19:30.703Z,11.40
2018-05-14T10:21:02.442Z,13.20
2018-05-14T10:22:34.355Z,14.70
2018-05-14T10:24:06.067Z,11.30
2018-05-14T10:25:37.883Z,13.60
2018-05-14T10:27:09.689Z,9.80
2018-05-14T10:28:41.501Z,9.40
2018-05-14T10:30:13.314Z,8.40
2018-05-14T10:31:45.126Z,10.80
2018-05-14T10:33:16.936Z,8.00
2018-05-14T10:34:48.749Z,7.50
2018-05-14T10:36:20.558Z,9.40
2018-05-14T10:39:24.785Z,9.00
2018-05-14T10:40:56.190Z,8.00
2018-05-14T10:42:27.799Z,7.00
2018-05-14T10:45:32.033Z,8.20
2018-05-14T10:47:03.235Z,9.10
2018-05-14T10:48:35.046Z,11.50
2018-05-14T10:50:06.857Z,14.00
2018-05-14T10:51:38.672Z,10.10
2018-05-14T10:53:10.485Z,9.30
2018-05-14T11:01:01.964Z,9.70
2018-05-14T11:02:33.173Z,10.00
2018-05-14T11:05:37.398Z,13.10
2018-05-14T11:07:12.268Z,15.10
2018-05-14T11:08:40.414Z,12.60
2018-05-14T11:10:13.522Z,14.60
2018-05-14T11:11:44.037Z,12.40
2018-05-14T11:13:15.854Z,11.90
2018-05-14T11:16:20.183Z,14.40
2018-05-14T11:17:52.436Z,12.70
2018-05-14T11:19:29.417Z,12.80
2018-05-14T11:20:55.115Z,13.00
2018-05-14T11:22:26.725Z,8.90
2018-05-14T11:23:58.541Z,9.30
2018-05-14T11:25:34.723Z,6.90
2018-05-14T11:27:02.162Z,5.80
2018-05-14T11:28:33.977Z,5.70
2018-05-14T11:30:05.787Z,9.20
2018-05-14T11:31:37.600Z,8.40
2018-05-14T11:33:09.465Z,6.90
2018-05-14T11:34:41.326Z,7.60
2018-05-14T11:36:13.038Z,8.30
2018-05-14T11:37:45.053Z,9.00
2018-05-14T11:39:16.666Z,10.10
2018-05-14T11:40:48.476Z,10.70
2018-05-14T11:42:20.314Z,8.60
2018-05-14T11:43:52.162Z,11.80
2018-05-14T11:45:23.913Z,7.70
2018-05-14T11:46:55.728Z,6.10
2018-05-14T11:48:27.540Z,12.20
2018-05-14T11:49:59.376Z,6.20
2018-05-14T11:51:31.194Z,5.70
2018-05-14T11:56:06.609Z,6.80
2018-05-14T11:57:38.426Z,5.60
2018-05-14T11:59:10.238Z,6.30
2018-05-14T12:00:42.693Z,4.80
2018-05-14T12:02:13.869Z,6.30
2018-05-14T12:03:45.684Z,4.50
2018-05-14T12:05:17.501Z,5.20
2018-05-14T12:06:49.317Z,8.20
2018-05-14T12:08:21.133Z,6.70
2018-05-14T12:12:56.784Z,4.40
2018-05-14T12:14:28.401Z,4.20
2018-05-14T12:16:00.253Z,3.60
2018-05-14T12:17:32.039Z,4.90
2018-05-14T12:19:03.852Z,4.20
2018-05-14T12:20:35.669Z,3.50
2018-05-14T12:23:39.354Z,5.00
2018-05-14T12:25:11.126Z,6.00
2018-05-14T12:26:43.445Z,4.60
2018-05-14T12:28:14.757Z,4.40
2018-05-14T12:29:46.876Z,4.80
2018-05-14T12:31:18.489Z,3.80
2018-05-14T12:32:50.721Z,4.30
2018-05-14T12:34:22.023Z,3.70
2018-05-14T12:35:56.245Z,4.20
2018-05-14T12:37:25.716Z,4.70
2018-05-14T12:40:29.288Z,5.70
2018-05-14T12:42:01.139Z,6.50
2018-05-14T12:43:33.022Z,5.10
2018-05-14T12:45:04.755Z,3.80
2018-05-14T12:46:36.757Z,5.40
2018-05-14T12:48:08.800Z,4.90
2018-05-14T12:49:40.591Z,4.40
2018-05-14T12:51:13.924Z,4.70
2018-05-14T12:52:44.555Z,5.90
2018-05-14T12:54:15.635Z,5.30
2018-05-14T12:55:47.762Z,5.10
2018-05-14T12:57:19.323Z,5.10
2018-05-14T12:58:51.083Z,5.00
2018-05-14T13:00:22.900Z,4.50
2018-05-14T13:01:55.022Z,5.80
2018-05-14T13:04:58.346Z,4.90
2018-05-14T13:06:30.200Z,4.70
2018-05-14T13:08:02.129Z,5.20
2018-05-14T13:09:33.860Z,5.50
2018-05-14T13:11:05.609Z,5.80
2018-05-14T13:12:37.427Z,6.20
2018-05-14T13:14:09.245Z,6.00
2018-05-14T13:15:41.256Z,6.30
2018-05-14T13:17:12.876Z,5.60
2018-05-14T13:18:44.689Z,6.60
2018-05-14T13:21:48.627Z,6.20
2018-05-14T13:23:20.136Z,6.10
2018-05-14T13:26:23.771Z,7.50
2018-05-14T13:27:55.588Z,8.30
2018-05-14T13:30:59.830Z,8.90
2018-05-14T13:32:31.041Z,7.70
2018-05-14T13:35:34.781Z,6.50
2018-05-14T13:37:07.136Z,6.90
2018-05-14T13:38:41.893Z,7.10
2018-05-14T13:40:10.231Z,6.20
2018-05-14T13:41:41.951Z,6.30
2018-05-14T13:43:13.768Z,6.30
2018-05-14T13:44:45.588Z,6.00
2018-05-14T13:46:17.461Z,5.80
2018-05-14T13:47:49.230Z,5.80
2018-05-14T13:49:21.338Z,7.80
2018-05-14T13:51:00.084Z,6.50
2018-05-14T13:52:24.690Z,6.50
2018-05-14T13:57:03.196Z,6.60
2018-05-14T13:58:31.969Z,5.70
2018-05-14T14:00:03.794Z,6.90
2018-05-14T14:01:35.610Z,5.90
2018-05-14T14:04:39.402Z,5.60
2018-05-14T14:06:11.072Z,5.20
2018-05-14T14:10:46.540Z,4.70
2018-05-14T14:12:18.358Z,5.60
2018-05-14T14:13:50.811Z,7.80
2018-05-14T14:15:22.936Z,5.20
2018-05-14T14:16:54.386Z,5.00
2018-05-14T14:18:26.174Z,5.40
2018-05-14T14:19:57.465Z,5.20
2018-05-14T14:21:29.592Z,6.30
2018-05-14T14:24:33.545Z,6.90
2018-05-14T14:26:04.754Z,5.80
2018-05-14T14:27:37.513Z,6.00
2018-05-14T14:29:08.958Z,5.50
2018-05-14T14:30:40.767Z,5.50
2018-05-14T14:32:12.142Z,7.70
2018-05-14T14:33:44.396Z,5.20
2018-05-14T14:35:15.684Z,5.60
2018-05-14T14:38:19.357Z,7.20
2018-05-14T14:39:51.148Z,6.30
2018-05-14T14:41:22.970Z,5.90
2018-05-14T14:44:26.616Z,6.20
2018-05-14T14:45:58.433Z,7.60
2018-05-14T14:47:30.559Z,5.90
2018-05-14T14:49:02.076Z,5.70
2018-05-14T14:50:34.754Z,6.10
2018-05-14T14:52:06.854Z,6.80
2018-05-14T14:53:37.747Z,6.80
2018-05-14T14:55:09.367Z,5.80
2018-05-14T14:56:41.181Z,6.80
2018-05-14T14:58:13.010Z,7.60
2018-05-14T14:59:44.825Z,6.20
2018-05-14T15:01:17.177Z,6.50
2018-05-14T15:02:48.670Z,6.90
2018-05-14T15:04:20.289Z,6.80
2018-05-14T15:05:52.109Z,7.50
2018-05-14T15:07:23.930Z,7.00
2018-05-14T15:08:56.431Z,7.10
2018-05-14T15:10:27.571Z,9.70
2018-05-14T15:11:59.420Z,7.10
2018-05-14T15:15:03.483Z,7.20
2018-05-14T15:16:34.850Z,8.20
2018-05-14T15:18:06.669Z,7.20
2018-05-14T15:19:38.492Z,8.40
2018-05-14T15:21:10.316Z,7.10
2018-05-14T15:22:42.134Z,7.30
2018-05-14T15:27:18.302Z,6.80
2018-05-14T15:28:49.416Z,6.00
2018-05-14T15:30:21.242Z,7.00
2018-05-14T15:31:53.077Z,8.80
2018-05-14T15:33:24.884Z,7.00
2018-05-14T15:34:56.717Z,6.90
2018-05-14T15:36:28.530Z,6.10
2018-05-14T15:38:00.353Z,6.80
2018-05-14T15:41:04.014Z,6.60
2018-05-14T15:42:35.823Z,7.20
2018-05-14T15:44:07.646Z,6.30
2018-05-14T15:45:39.471Z,6.60
2018-05-14T15:47:11.395Z,7.00
2018-05-14T15:48:43.917Z,6.80
2018-05-14T15:53:23.069Z,6.70
2018-05-14T15:56:22.874Z,6.10
2018-05-14T15:57:54.785Z,6.90
2018-05-14T15:59:25.875Z,7.80
2018-05-14T16:00:58.349Z,7.70
2018-05-14T16:04:27.623Z,7.90
2018-05-14T16:07:38.754Z,7.10
2018-05-14T16:08:36.819Z,7.40
2018-05-14T16:10:08.673Z,7.20
2018-05-14T16:11:41.158Z,6.60
2018-05-14T16:13:12.288Z,6.70
2018-05-14T16:14:44.150Z,6.30
2018-05-14T16:16:15.937Z,6.10
2018-05-14T16:17:47.862Z,6.20
2018-05-14T16:19:19.587Z,6.20
2018-05-14T16:20:51.462Z,6.00
2018-05-14T16:22:23.238Z,7.40
2018-05-14T16:29:28.836Z,7.40
2018-05-14T16:30:15.287Z,7.90
2018-05-14T16:33:30.550Z,8.20
2018-05-14T16:34:49.639Z,7.70
2018-05-14T16:36:21.464Z,8.10
2018-05-14T16:37:53.294Z,7.40
2018-05-14T16:39:25.112Z,7.80
2018-05-14T16:40:57.152Z,6.70
2018-05-14T16:42:28.759Z,7.40
2018-05-14T16:44:00.583Z,7.90
2018-05-14T16:45:32.409Z,8.20
2018-05-14T16:47:04.232Z,8.00
2018-05-14T16:48:36.158Z,7.40
2018-05-14T16:50:07.885Z,7.30
2018-05-14T16:51:39.900Z,7.60
2018-05-14T16:53:12.749Z,7.50
2018-05-14T16:54:44.953Z,8.30
2018-05-14T16:56:15.213Z,8.80
2018-05-14T16:57:47.058Z,8.60
2018-05-14T17:00:50.756Z,9.00
2018-05-14T17:02:22.682Z,8.70
2018-05-14T17:03:54.734Z,9.90
2018-05-14T17:05:26.124Z,8.40
2018-05-14T17:06:57.947Z,9.30
2018-05-14T17:08:29.771Z,9.60
2018-05-14T17:10:01.798Z,9.40
2018-05-14T17:13:05.767Z,9.60
2018-05-14T17:14:37.271Z,9.50
2018-05-14T17:16:08.882Z,9.30
2018-05-14T17:17:41.359Z,9.00
2018-05-14T17:20:44.956Z,8.80
2018-05-14T17:22:16.752Z,8.20
2018-05-14T17:23:47.993Z,8.20
2018-05-14T17:25:19.816Z,9.90
2018-05-14T17:26:51.639Z,9.30
2018-05-14T17:28:23.970Z,9.00
2018-05-14T17:29:55.952Z,11.10
2018-05-14T17:31:27.104Z,9.30
2018-05-14T17:32:58.928Z,9.60
2018-05-14T17:34:30.953Z,11.50
2018-05-14T17:36:02.578Z,10.20
2018-05-14T17:37:34.495Z,10.70
2018-05-14T17:39:06.225Z,8.60
2018-05-14T17:40:38.040Z,9.70
2018-05-14T17:42:09.863Z,9.00
2018-05-14T17:43:41.788Z,9.60
2018-05-14T17:45:13.510Z,14.80
2018-05-14T17:46:45.356Z,14.40
2018-05-14T17:48:17.157Z,14.60
2018-05-14T17:49:48.978Z,16.30
2018-05-14T17:52:53.282Z,16.10
2018-05-14T17:54:24.485Z,19.90
2018-05-14T17:55:56.373Z,16.80
2018-05-14T17:57:28.097Z,16.80
2018-05-14T18:00:31.744Z,18.80
2018-05-14T18:03:35.389Z,23.80
2018-05-14T18:05:07.265Z,19.80
2018-05-14T18:06:39.034Z,18.70
2018-05-14T18:08:10.857Z,20.40
2018-05-14T18:09:42.837Z,19.20
2018-05-14T18:12:47.738Z,20.40
2018-05-14T18:15:51.491Z,19.50
2018-05-14T18:17:23.021Z,18.60
2018-05-14T18:20:26.364Z,20.00
2018-05-14T18:21:57.979Z,20.30
2018-05-14T18:23:29.906Z,21.00
2018-05-14T18:25:00.997Z,19.80
2018-05-14T18:26:32.713Z,19.80
2018-05-14T18:28:04.532Z,20.20
2018-05-14T18:29:36.352Z,21.50
2018-05-14T18:31:08.191Z,21.50
2018-05-14T18:32:39.993Z,19.60
2018-05-14T18:34:11.916Z,20.40
2018-05-14T18:35:43.636Z,18.90
2018-05-14T18:37:15.659Z,19.30
2018-05-14T18:38:47.272Z,20.70
2018-05-14T18:40:19.095Z,18.80
2018-05-14T18:41:50.914Z,17.60
2018-05-14T18:43:22.800Z,17.40
2018-05-14T18:44:54.553Z,17.40
2018-05-14T18:46:26.462Z,16.60
2018-05-14T18:47:58.195Z,17.30
2018-05-14T18:49:30.017Z,16.60
2018-05-14T18:51:01.845Z,16.90
2018-05-14T18:52:33.755Z,17.10
2018-05-14T18:54:05.476Z,15.50
2018-05-14T18:55:37.416Z,15.10
2018-05-14T18:57:09.232Z,16.20
2018-05-14T18:58:40.935Z,15.90
2018-05-14T19:00:12.756Z,15.00
2018-05-14T19:01:44.576Z,14.40
2018-05-14T19:03:16.396Z,14.90
2018-05-14T19:04:49.541Z,15.60
2018-05-14T19:07:52.463Z,15.30
2018-05-14T19:09:23.675Z,16.10
2018-05-14T19:10:55.597Z,16.20
2018-05-14T19:12:27.387Z,17.10
2018-05-14T19:13:59.134Z,16.50
2018-05-14T19:15:30.984Z,17.10
2018-05-14T19:17:02.773Z,18.60
2018-05-14T19:18:34.905Z,16.00
2018-05-14T19:20:06.412Z,17.50
2018-05-14T19:21:38.229Z,16.50
2018-05-14T19:23:10.049Z,16.40
2018-05-14T19:24:41.867Z,16.90
2018-05-14T19:26:13.684Z,16.80
2018-05-14T19:27:45.504Z,17.00
2018-05-14T19:29:17.424Z,16.70
2018-05-14T19:30:49.161Z,19.40
2018-05-14T19:32:21.009Z,19.70
2018-05-14T19:33:52.776Z,19.60
2018-05-14T19:35:24.898Z,19.40
2018-05-14T19:36:56.415Z,18.50
2018-05-14T19:38:28.269Z,20.80
2018-05-14T19:40:00.045Z,19.70
2018-05-14T19:41:31.865Z,18.90
2018-05-14T19:43:03.720Z,19.40
2018-05-14T19:44:36.022Z,21.30
2018-05-14T19:46:07.313Z,22.40
2018-05-14T19:47:39.330Z,21.40
2018-05-14T19:49:11.108Z,22.80
2018-05-14T19:52:14.579Z,21.10
2018-05-14T19:53:46.427Z,25.40
2018-05-14T19:55:18.217Z,26.70
2018-05-14T19:56:50.085Z,25.70
2018-05-14T19:58:21.844Z,25.90
2018-05-14T19:59:53.659Z,24.50
2018-05-14T20:01:25.474Z,25.90
2018-05-14T20:02:57.289Z,28.50
2018-05-14T20:04:29.112Z,26.40
2018-05-14T20:06:01.026Z,31.10
2018-05-14T20:07:32.737Z,28.30
2018-05-14T20:09:04.653Z,25.10
2018-05-14T20:10:36.367Z,27.50
2018-05-14T20:12:08.180Z,26.40
2018-05-14T20:13:39.994Z,27.20
2018-05-14T20:15:11.811Z,25.30
2018-05-14T20:16:43.622Z,27.50
2018-05-14T20:18:15.462Z,27.60
2018-05-14T20:19:47.251Z,29.30
2018-05-14T20:21:19.116Z,27.50
2018-05-14T20:22:50.958Z,29.50
2018-05-14T20:24:22.820Z,29.70
2018-05-14T20:25:54.509Z,30.60
2018-05-14T20:27:26.325Z,29.20
2018-05-14T20:28:58.209Z,29.60
2018-05-14T20:30:29.950Z,30.40
2018-05-14T20:32:01.766Z,32.70
2018-05-14T20:33:33.580Z,30.50
2018-05-14T20:35:05.393Z,31.20
2018-05-14T20:36:37.945Z,35.10
2018-05-14T20:38:09.021Z,33.40
2018-05-14T20:39:41.074Z,33.00
2018-05-14T20:41:12.798Z,33.40
2018-05-14T20:42:44.837Z,38.50
2018-05-14T20:44:16.275Z,34.50
2018-05-14T20:45:48.089Z,32.60
2018-05-14T20:47:19.902Z,34.40
2018-05-14T20:48:51.716Z,33.30
2018-05-14T20:50:23.529Z,37.30
2018-05-14T20:51:55.344Z,38.30
2018-05-14T20:53:27.158Z,38.60
2018-05-14T20:54:58.970Z,38.60
2018-05-14T20:56:30.784Z,38.40
2018-05-14T20:58:02.597Z,39.20
2018-05-14T20:59:34.412Z,38.80
2018-05-14T21:01:08.537Z,38.40
2018-05-14T21:02:38.038Z,36.60
2018-05-14T21:04:09.852Z,37.90
2018-05-14T21:05:41.670Z,42.00
2018-05-14T21:07:13.482Z,35.20
2018-05-14T21:08:45.291Z,38.30
2018-05-14T21:10:17.105Z,37.80
2018-05-14T21:11:48.920Z,35.90
2018-05-14T21:13:20.733Z,36.80
2018-05-14T21:14:52.641Z,36.90
2018-05-14T21:16:24.359Z,38.10
2018-05-14T21:17:56.173Z,40.80
2018-05-14T21:19:28.087Z,40.60
2018-05-14T21:20:59.802Z,36.80
2018-05-14T21:22:31.614Z,35.90
2018-05-14T21:24:03.427Z,38.80
2018-05-14T21:25:35.239Z,40.00
2018-05-14T21:27:07.054Z,38.70
2018-05-14T21:28:38.866Z,34.10
2018-05-14T21:30:10.681Z,34.10
2018-05-14T21:31:42.596Z,35.20